Time;durP1;ratioP1;P1;durP2;ratioP2;P2;SDS_P1;SDS_P2;PMS_P1;PMS_P2;Temp;Humidity;BMP_temperature;BMP_pressure;BME280_temperature;BME280_humidity;BME280_pressure;Samples;Min_cycle;Max_cycle;Signal;HPM_P1;HPM_P2
2022/09/29 00:01:51;;;;;;;;;;;;;;;20.46;54.97;99510.03;5034917;28;5325;-65
2022/09/29 00:04:18;;;;;;;;;;;;;;;20.46;54.87;99497.78;5036046;28;4214;-64
2022/09/29 00:06:45;;;;;;;;;;;;;;;20.45;54.96;99502.06;5034645;28;4242;-64
2022/09/29 00:09:11;;;;;;;;;;;;;;;20.44;54.88;99503.50;5031078;28;5499;-65
2022/09/29 00:11:37;;;;;;;;;;;;;;;20.43;54.74;99502.75;5023029;28;4172;-65
2022/09/29 00:14:04;;;;;;;;;;;;;;;20.44;54.64;99497.75;5026018;28;5735;-65
2022/09/29 00:16:30;;;;;;;;;;;;;;;20.44;54.52;99504.22;5028187;28;5329;-65
2022/09/29 00:18:56;;;;;;;;;;;;;;;20.40;54.53;99500.50;5031082;28;4094;-65
2022/09/29 00:21:23;;;;;;;;;;;;;;;20.41;54.40;99496.97;5031664;28;5364;-65
2022/09/29 00:23:49;;;;;;;;;;;;;;;20.44;54.75;99506.38;5030757;28;4343;-64
2022/09/29 00:26:17;;;;;;;;;;;;;;;20.43;54.75;99502.75;5018939;28;4258;-65
2022/09/29 00:28:47;;;;;;;;;;;;;;;20.43;54.57;99504.88;5030766;28;5350;-65
2022/09/29 00:31:14;;;;;;;;;;;;;;;20.40;54.57;99500.50;5023160;28;5002;-65
2022/09/29 00:33:40;;;;;;;;;;;;;;;20.42;54.61;99509.19;5019992;28;4178;-65
2022/09/29 00:36:08;;;;;;;;;;;;;;;20.42;54.38;99503.44;5014739;28;4449;-65
2022/09/29 00:38:34;;;;;;;;;;;;;;;20.39;54.58;99505.53;5026512;28;4149;-65
2022/09/29 00:41:01;;;;;;;;;;;;;;;20.41;54.36;99507.72;5022631;28;4317;-65
2022/09/29 00:43:46;;;;;;;;;;;;;;;20.41;54.65;99507.72;5031686;28;4507;-65
2022/09/29 00:46:13;;;;;;;;;;;;;;;20.40;54.63;99494.75;5026882;28;4236;-65
2022/09/29 00:48:40;;;;;;;;;;;;;;;20.38;54.59;99504.06;5030416;28;5328;-65
2022/09/29 00:51:06;;;;;;;;;;;;;;;20.38;54.45;99506.19;5027717;28;4210;-65
2022/09/29 00:53:32;;;;;;;;;;;;;;;20.39;54.37;99504.81;5025246;28;4635;-65
2022/09/29 00:56:00;;;;;;;;;;;;;;;20.40;54.50;99501.22;5024580;28;4239;-65
2022/09/29 00:58:36;;;;;;;;;;;;;;;20.40;54.21;99506.97;5029130;28;4526;-65
2022/09/29 01:01:03;;;;;;;;;;;;;;;20.39;54.50;99499.06;5017099;28;3956;-65
2022/09/29 01:03:30;;;;;;;;;;;;;;;20.38;54.46;99504.06;5011934;28;4439;-65
2022/09/29 01:05:57;;;;;;;;;;;;;;;20.38;54.30;99504.06;5029644;28;4140;-65
2022/09/29 01:08:23;;;;;;;;;;;;;;;20.36;54.17;99512.63;5018738;28;4174;-65
2022/09/29 01:10:50;;;;;;;;;;;;;;;20.37;54.22;99511.22;5028338;28;4102;-65
2022/09/29 01:13:17;;;;;;;;;;;;;;;20.36;54.37;99511.91;5027409;28;4246;-66
2022/09/29 01:15:43;;;;;;;;;;;;;;;20.36;54.20;99518.38;5026985;28;5334;-65
2022/09/29 01:18:10;;;;;;;;;;;;;;;20.35;54.26;99521.94;5013708;28;4159;-65
2022/09/29 01:20:39;;;;;;;;;;;;;;;20.35;54.16;99522.69;5021339;28;5292;-65
2022/09/29 01:23:20;;;;;;;;;;;;;;;20.35;54.30;99527.69;5028291;28;4260;-64
2022/09/29 01:26:05;;;;;;;;;;;;;;;20.34;54.32;99526.22;5052157;28;5278;-65
2022/09/29 01:28:40;;;;;;;;;;;;;;;20.33;54.18;99531.25;5023980;28;4215;-65
2022/09/29 01:31:15;;;;;;;;;;;;;;;20.33;54.28;99537.00;5025037;28;4426;-65
2022/09/29 01:33:57;;;;;;;;;;;;;;;20.31;54.28;99528.31;5032406;28;4151;-65
2022/09/29 01:36:29;;;;;;;;;;;;;;;20.32;54.09;99535.53;5013443;28;4246;-64
2022/09/29 01:39:14;;;;;;;;;;;;;;;20.30;53.96;99527.59;5025410;28;4093;-65
2022/09/29 01:41:50;;;;;;;;;;;;;;;20.31;54.30;99545.56;5029394;28;4191;-65
2022/09/29 01:44:27;;;;;;;;;;;;;;;20.31;54.16;99539.81;5025254;28;4216;-65
2022/09/29 01:47:01;;;;;;;;;;;;;;;20.29;53.99;99540.50;5026456;28;4235;-65
2022/09/29 01:49:28;;;;;;;;;;;;;;;20.29;54.12;99536.88;5027557;28;4101;-65
2022/09/29 01:52:07;;;;;;;;;;;;;;;20.29;54.00;99536.88;5025432;28;4204;-65
2022/09/29 01:54:42;;;;;;;;;;;;;;;20.28;54.16;99544.06;5023151;28;5442;-65
2022/09/29 01:57:09;;;;;;;;;;;;;;;20.28;54.04;99538.31;5017110;28;4236;-65
2022/09/29 01:59:39;;;;;;;;;;;;;;;20.28;54.09;99547.66;5031559;28;4110;-65
2022/09/29 02:02:07;;;;;;;;;;;;;;;20.28;54.21;99552.69;5026526;28;5224;-65
2022/09/29 02:04:52;;;;;;;;;;;;;;;20.27;53.97;99554.06;5023828;28;5143;-65
2022/09/29 02:07:26;;;;;;;;;;;;;;;20.26;54.31;99553.34;5025665;28;4106;-65
2022/09/29 02:09:55;;;;;;;;;;;;;;;20.25;54.24;99554.06;5026488;28;4157;-65
2022/09/29 02:12:22;;;;;;;;;;;;;;;20.26;54.30;99555.50;5021342;28;4179;-65
2022/09/29 02:14:49;;;;;;;;;;;;;;;20.25;54.04;99548.31;5027057;28;4188;-65
2022/09/29 02:17:18;;;;;;;;;;;;;;;20.24;54.33;99553.28;5017533;28;4371;-65
2022/09/29 02:19:46;;;;;;;;;;;;;;;20.25;53.97;99559.78;5024485;28;4100;-64
2022/09/29 02:22:12;;;;;;;;;;;;;;;20.25;54.13;99556.94;5025739;28;4205;-65
2022/09/29 02:24:39;;;;;;;;;;;;;;;20.25;54.09;99566.28;5024836;28;4265;-65
2022/09/29 02:27:05;;;;;;;;;;;;;;;20.23;54.00;99559.75;5023288;28;3998;-65
2022/09/29 02:29:32;;;;;;;;;;;;;;;20.24;54.17;99552.56;5030579;28;4154;-65
2022/09/29 02:32:00;;;;;;;;;;;;;;;20.24;54.04;99558.31;5024848;28;4285;-64
2022/09/29 02:34:27;;;;;;;;;;;;;;;20.23;54.13;99568.38;5027627;28;4159;-65
2022/09/29 02:37:12;;;;;;;;;;;;;;;20.22;53.91;99566.88;5026741;28;5163;-65
2022/09/29 02:39:41;;;;;;;;;;;;;;;20.24;53.94;99566.94;5028774;28;4042;-65
2022/09/29 02:42:11;;;;;;;;;;;;;;;20.25;53.77;99571.28;5028282;28;4155;-65
2022/09/29 02:44:41;;;;;;;;;;;;;;;20.27;53.95;99568.44;5022353;28;4208;-65
2022/09/29 02:47:13;;;;;;;;;;;;;;;20.25;54.19;99568.41;5021083;28;4223;-65
2022/09/29 02:49:45;;;;;;;;;;;;;;;20.27;54.05;99566.31;5022946;28;4309;-65
2022/09/29 02:52:26;;;;;;;;;;;;;;;20.28;54.20;99576.41;5018611;28;4303;-66
2022/09/29 02:55:06;;;;;;;;;;;;;;;20.30;54.25;99567.09;5028863;28;4172;-65
2022/09/29 02:57:36;;;;;;;;;;;;;;;20.31;54.28;99574.31;5016504;28;3998;-65
2022/09/29 03:00:10;;;;;;;;;;;;;;;20.32;54.24;99575.03;5027860;28;4196;-66
2022/09/29 03:02:36;;;;;;;;;;;;;;;20.31;54.36;99574.31;5020889;28;5222;-65
2022/09/29 03:05:04;;;;;;;;;;;;;;;20.32;54.49;99575.78;5027608;28;4312;-66
2022/09/29 03:07:30;;;;;;;;;;;;;;;20.32;54.41;99572.16;5018680;28;4331;-65
2022/09/29 03:09:56;;;;;;;;;;;;;;;20.32;54.55;99572.16;5021568;28;4092;-65
2022/09/29 03:12:23;;;;;;;;;;;;;;;20.32;54.73;99570.03;5024601;28;4280;-66
2022/09/29 03:14:49;;;;;;;;;;;;;;;20.31;54.64;99568.56;5018754;28;4102;-65
2022/09/29 03:17:15;;;;;;;;;;;;;;;20.35;54.73;99574.41;5021233;28;4547;-66
2022/09/29 03:19:41;;;;;;;;;;;;;;;20.35;54.77;99573.69;5022568;28;4204;-66
2022/09/29 03:22:08;;;;;;;;;;;;;;;20.38;54.69;99575.19;5025289;28;4092;-65
2022/09/29 03:24:35;;;;;;;;;;;;;;;20.39;54.71;99579.56;5019585;28;4192;-66
2022/09/29 03:27:01;;;;;;;;;;;;;;;20.39;54.56;99574.53;5025555;28;5617;-65
2022/09/29 03:29:28;;;;;;;;;;;;;;;20.40;54.81;99581.72;5025247;28;4250;-65
2022/09/29 03:31:54;;;;;;;;;;;;;;;20.38;54.71;99575.94;5029342;28;4178;-65
2022/09/29 03:34:20;;;;;;;;;;;;;;;20.38;54.66;99587.44;5025541;28;5181;-65
2022/09/29 03:36:47;;;;;;;;;;;;;;;20.38;54.70;99573.06;5022371;28;4097;-66
2022/09/29 03:39:13;;;;;;;;;;;;;;;20.38;54.72;99587.44;5017009;28;4763;-65
2022/09/29 03:41:40;;;;;;;;;;;;;;;20.38;54.95;99578.81;5020987;28;4264;-65
2022/09/29 03:44:06;;;;;;;;;;;;;;;20.37;54.69;99580.22;5019614;28;4247;-66
2022/09/29 03:46:32;;;;;;;;;;;;;;;20.38;54.93;99584.56;5026748;28;4024;-65
2022/09/29 03:48:59;;;;;;;;;;;;;;;20.39;54.73;99588.91;5024437;28;4677;-65
2022/09/29 03:51:25;;;;;;;;;;;;;;;20.39;54.85;99591.06;5025673;28;5270;-65
2022/09/29 03:53:52;;;;;;;;;;;;;;;20.38;54.73;99584.56;5024555;28;4424;-66
2022/09/29 03:56:18;;;;;;;;;;;;;;;20.39;54.56;99585.31;5026419;28;4156;-65
2022/09/29 03:58:45;;;;;;;;;;;;;;;20.40;54.79;99593.22;5029618;28;4076;-65
2022/09/29 04:01:11;;;;;;;;;;;;;;;20.40;54.50;99593.22;5022575;28;5201;-65
2022/09/29 04:03:38;;;;;;;;;;;;;;;20.40;54.56;99593.22;5024284;28;4256;-65
2022/09/29 04:06:04;;;;;;;;;;;;;;;20.41;54.56;99594.72;5027074;28;5281;-66
2022/09/29 04:08:30;;;;;;;;;;;;;;;20.41;54.67;99602.59;5021582;28;4120;-65
2022/09/29 04:10:57;;;;;;;;;;;;;;;20.41;54.63;99605.47;5022495;28;4157;-65
2022/09/29 04:13:23;;;;;;;;;;;;;;;20.40;54.55;99604.72;5017635;28;4247;-65
2022/09/29 04:15:49;;;;;;;;;;;;;;;20.39;54.73;99605.44;5023123;28;4238;-65
2022/09/29 04:18:16;;;;;;;;;;;;;;;20.39;54.46;99603.28;5023952;28;4183;-65
2022/09/29 04:20:42;;;;;;;;;;;;;;;20.39;54.51;99603.28;5030964;28;5255;-65
2022/09/29 04:23:09;;;;;;;;;;;;;;;20.40;54.33;99609.75;5022402;28;4150;-65
2022/09/29 04:25:35;;;;;;;;;;;;;;;20.38;54.41;99601.81;5027133;28;4120;-65
2022/09/29 04:28:01;;;;;;;;;;;;;;;20.39;54.33;99603.28;5015783;28;4202;-65
2022/09/29 04:30:27;;;;;;;;;;;;;;;20.39;54.35;99609.03;5014289;28;4413;-66
2022/09/29 04:32:54;;;;;;;;;;;;;;;20.40;54.37;99619.09;5028042;28;4171;-65
2022/09/29 04:35:20;;;;;;;;;;;;;;;20.39;54.56;99609.03;5026023;28;4248;-65
2022/09/29 04:37:46;;;;;;;;;;;;;;;20.40;54.58;99612.63;5017077;28;4067;-64
2022/09/29 04:40:13;;;;;;;;;;;;;;;20.39;54.42;99611.19;5022230;28;4167;-66
2022/09/29 04:42:39;;;;;;;;;;;;;;;20.41;54.54;99609.09;5005506;28;4081;-65
2022/09/29 04:45:06;;;;;;;;;;;;;;;20.43;54.47;99617.00;5026981;28;5372;-65
2022/09/29 04:47:32;;;;;;;;;;;;;;;20.43;54.62;99619.88;5027596;28;5265;-66
2022/09/29 04:49:58;;;;;;;;;;;;;;;20.42;54.49;99613.41;5014237;28;4227;-65
2022/09/29 04:52:25;;;;;;;;;;;;;;;20.44;54.72;99613.47;5024185;28;5282;-65
2022/09/29 04:54:51;;;;;;;;;;;;;;;20.42;55.64;99633.53;5026437;28;4251;-64
2022/09/29 04:57:17;;;;;;;;;;;;;;;20.44;56.50;99627.13;5034771;28;4244;-66
2022/09/29 04:59:44;;;;;;;;;;;;;;;20.50;56.15;99636.63;5027635;28;4283;-65
2022/09/29 05:02:10;;;;;;;;;;;;;;;20.46;55.99;99624.31;5022978;28;4242;-63
2022/09/29 05:04:36;;;;;;;;;;;;;;;20.34;55.96;99629.72;5021135;28;5529;-66
2022/09/29 05:07:03;;;;;;;;;;;;;;;20.36;55.68;99621.16;5031139;28;5416;-63
2022/09/29 05:09:29;;;;;;;;;;;;;;;20.43;56.47;99632.16;5018225;28;5271;-66
2022/09/29 05:11:59;;;;;;;;;;;;;;;20.45;56.22;99637.94;5019153;28;4160;-66
2022/09/29 05:14:25;;;;;;;;;;;;;;;20.44;56.53;99633.59;5013628;28;5536;-66
2022/09/29 05:16:53;;;;;;;;;;;;;;;20.44;56.80;99639.34;5022318;28;4227;-65
2022/09/29 05:19:19;;;;;;;;;;;;;;;20.45;57.89;99640.78;5014535;28;5298;-65
2022/09/29 05:21:46;;;;;;;;;;;;;;;20.51;56.53;99643.84;5020664;28;4159;-61
2022/09/29 05:24:12;;;;;;;;;;;;;;;20.52;57.23;99644.56;5023398;28;4276;-66
2022/09/29 05:26:38;;;;;;;;;;;;;;;20.59;57.14;99648.38;5004458;28;5419;-66
2022/09/29 05:29:05;;;;;;;;;;;;;;;20.86;59.74;99644.75;4996110;28;5217;-64
2022/09/29 05:31:31;;;;;;;;;;;;;;;20.96;59.60;99643.53;5016603;28;4394;-63
2022/09/29 05:33:57;;;;;;;;;;;;;;;21.08;59.09;99643.84;5024128;28;4252;-62
2022/09/29 05:36:24;;;;;;;;;;;;;;;20.76;58.63;99650.25;5019320;28;4190;-63
2022/09/29 05:38:50;;;;;;;;;;;;;;;20.46;55.72;99642.28;5020400;28;4235;-63
2022/09/29 05:41:21;;;;;;;;;;;;;;;20.66;55.44;99641.34;5030482;28;4191;-68
2022/09/29 05:43:48;;;;;;;;;;;;;;;20.77;53.66;99648.13;5027980;28;5215;-67
2022/09/29 05:46:15;;;;;;;;;;;;;;;20.70;52.28;99650.09;5026796;28;5150;-68
2022/09/29 05:48:45;;;;;;;;;;;;;;;20.67;51.53;99646.44;5030636;28;4330;-73
2022/09/29 05:51:13;;;;;;;;;;;;;;;20.73;50.88;99650.88;5020495;28;4168;-68
2022/09/29 05:53:46;;;;;;;;;;;;;;;20.72;50.44;99653.03;5019516;28;4257;-67
2022/09/29 05:56:23;;;;;;;;;;;;;;;20.72;50.06;99655.91;5038621;28;4353;-67
2022/09/29 05:58:49;;;;;;;;;;;;;;;20.68;49.75;99647.91;5026622;28;4310;-67
2022/09/29 06:01:17;;;;;;;;;;;;;;;20.32;49.77;99656.28;5030128;28;5139;-65
2022/09/29 06:03:43;;;;;;;;;;;;;;;20.48;49.72;99656.00;5021676;28;4226;-65
2022/09/29 06:06:10;;;;;;;;;;;;;;;20.30;49.76;99656.22;5022834;28;4069;-64
2022/09/29 06:08:36;;;;;;;;;;;;;;;20.32;50.30;99662.03;5017866;28;5266;-67
2022/09/29 06:11:10;;;;;;;;;;;;;;;20.40;50.18;99662.22;5025812;28;4253;-66
2022/09/29 06:13:37;;;;;;;;;;;;;;;20.35;50.63;99660.66;5028056;28;5456;-66
2022/09/29 06:16:03;;;;;;;;;;;;;;;20.42;50.88;99653.66;5022090;28;4161;-65
2022/09/29 06:18:29;;;;;;;;;;;;;;;20.44;50.98;99662.34;5027351;28;5155;-65
2022/09/29 06:21:00;;;;;;;;;;;;;;;20.48;50.97;99668.22;5023961;28;4020;-65
2022/09/29 06:23:26;;;;;;;;;;;;;;;20.47;51.13;99666.75;5021336;28;4297;-65
2022/09/29 06:26:00;;;;;;;;;;;;;;;20.81;52.84;99662.59;5022994;28;4258;-71
2022/09/29 06:28:27;;;;;;;;;;;;;;;20.80;51.27;99670.50;5027802;28;5182;-60
2022/09/29 06:31:03;;;;;;;;;;;;;;;21.04;51.33;99676.13;5028983;28;5432;-61
2022/09/29 06:33:30;;;;;;;;;;;;;;;21.21;51.35;99671.53;5030181;28;5244;-59
2022/09/29 06:38:41;;;;;;;;;;;;;;;21.29;51.00;99663.06;5027129;28;4430;-60
2022/09/29 06:41:07;;;;;;;;;;;;;;;21.34;50.90;99666.75;5022373;28;4230;-64
2022/09/29 06:43:34;;;;;;;;;;;;;;;21.26;50.58;99664.44;5023358;28;4242;-59
2022/09/29 06:46:00;;;;;;;;;;;;;;;20.62;50.18;99675.78;5009737;28;5396;-57
2022/09/29 06:48:28;;;;;;;;;;;;;;;20.58;51.27;99675.69;5010570;28;5291;-61
2022/09/29 06:50:55;;;;;;;;;;;;;;;20.65;51.65;99669.41;5005449;28;4807;-61
2022/09/29 06:53:35;;;;;;;;;;;;;;;20.75;51.08;99671.78;5005833;28;4382;-60
2022/09/29 06:56:04;;;;;;;;;;;;;;;20.77;52.09;99666.09;5006548;28;4166;-61
2022/09/29 06:58:30;;;;;;;;;;;;;;;20.77;52.09;99668.97;5009408;28;4953;-51
2022/09/29 07:01:00;;;;;;;;;;;;;;;20.81;51.98;99679.88;5003480;28;4269;-52
2022/09/29 07:03:30;;;;;;;;;;;;;;;20.78;52.58;99681.25;5013380;28;4239;-51
2022/09/29 07:05:56;;;;;;;;;;;;;;;20.79;52.82;99671.19;5009649;28;4241;-61
2022/09/29 07:08:42;;;;;;;;;;;;;;;20.77;52.81;99682.63;5009599;28;5660;-54
2022/09/29 07:11:09;;;;;;;;;;;;;;;20.78;53.12;99687.72;5012034;28;4255;-53
2022/09/29 07:13:35;;;;;;;;;;;;;;;20.79;53.32;99689.16;5007896;28;5458;-51
2022/09/29 07:16:08;;;;;;;;;;;;;;;21.09;52.62;99688.47;5010991;28;5277;-64
2022/09/29 07:18:36;;;;;;;;;;;;;;;21.22;52.53;99692.41;5018416;28;5134;-65
2022/09/29 07:21:09;;;;;;;;;;;;;;;21.21;51.97;99696.69;5025608;28;4078;-70
2022/09/29 07:23:36;;;;;;;;;;;;;;;21.06;52.57;99692.72;5018281;28;4015;-69
2022/09/29 07:26:02;;;;;;;;;;;;;;;20.94;53.32;99693.16;5014258;28;4130;-69
2022/09/29 07:28:29;;;;;;;;;;;;;;;20.91;53.25;99706.75;5021619;28;4585;-65
2022/09/29 07:31:02;;;;;;;;;;;;;;;20.90;53.27;99705.28;5025156;28;4434;-65
2022/09/29 07:33:40;;;;;;;;;;;;;;;20.90;53.26;99704.56;5022113;28;4882;-65
2022/09/29 07:36:07;;;;;;;;;;;;;;;20.92;53.24;99716.13;5030933;28;4243;-65
2022/09/29 07:38:33;;;;;;;;;;;;;;;20.91;53.12;99712.53;5031626;28;4323;-65
2022/09/29 07:41:01;;;;;;;;;;;;;;;20.91;53.31;99711.75;5028434;28;5220;-65
2022/09/29 07:43:28;;;;;;;;;;;;;;;20.90;53.08;99716.78;5031085;28;4035;-65
2022/09/29 07:45:55;;;;;;;;;;;;;;;20.89;53.36;99718.22;5024237;28;4175;-65
2022/09/29 07:48:21;;;;;;;;;;;;;;;20.89;53.44;99715.34;5028974;28;4631;-65
2022/09/29 07:50:48;;;;;;;;;;;;;;;20.88;53.49;99719.63;5024891;28;4245;-65
2022/09/29 07:53:14;;;;;;;;;;;;;;;20.87;53.30;99729.66;5028334;28;4172;-64
2022/09/29 07:55:40;;;;;;;;;;;;;;;20.87;53.56;99729.66;5025536;28;4204;-65
2022/09/29 07:58:07;;;;;;;;;;;;;;;20.87;53.42;99728.94;5024370;28;5318;-64
2022/09/29 08:00:33;;;;;;;;;;;;;;;20.87;53.42;99728.94;5026886;28;4176;-64
2022/09/29 08:03:03;;;;;;;;;;;;;;;20.87;53.67;99735.44;5020589;28;4619;-64
2022/09/29 08:05:32;;;;;;;;;;;;;;;20.89;53.63;99731.84;5023064;28;4440;-64
2022/09/29 08:08:02;;;;;;;;;;;;;;;20.87;53.63;99735.44;5026146;28;5408;-65
2022/09/29 08:10:29;;;;;;;;;;;;;;;20.88;53.75;99742.63;5023490;28;5334;-64
2022/09/29 08:12:56;;;;;;;;;;;;;;;20.88;53.48;99736.88;5028304;28;5575;-64
2022/09/29 08:15:22;;;;;;;;;;;;;;;20.89;53.63;99737.59;5027000;28;4264;-64
2022/09/29 08:17:51;;;;;;;;;;;;;;;20.89;53.64;99740.47;5033967;28;4258;-64
2022/09/29 08:20:17;;;;;;;;;;;;;;;20.88;53.59;99736.16;5021058;28;4193;-65
2022/09/29 08:22:44;;;;;;;;;;;;;;;20.87;53.61;99740.47;5026989;28;4529;-64
2022/09/29 08:25:10;;;;;;;;;;;;;;;20.87;53.77;99746.22;5032341;28;5023;-64
2022/09/29 08:27:36;;;;;;;;;;;;;;;20.87;53.63;99754.84;5034261;28;4183;-64
2022/09/29 08:30:17;;;;;;;;;;;;;;;20.86;54.01;99748.34;5030738;28;5310;-64
2022/09/29 08:32:49;;;;;;;;;;;;;;;20.86;53.92;99748.34;5027303;28;4531;-64
2022/09/29 08:35:16;;;;;;;;;;;;;;;20.87;53.93;99751.97;5018348;28;4244;-64
2022/09/29 08:37:42;;;;;;;;;;;;;;;20.85;54.05;99761.25;5018749;28;6148;-64
2022/09/29 08:40:09;;;;;;;;;;;;;;;20.85;54.01;99761.25;5021501;28;4210;-64
2022/09/29 08:42:54;;;;;;;;;;;;;;;20.86;54.15;99762.00;5019533;28;6356;-64
2022/09/29 08:45:23;;;;;;;;;;;;;;;20.84;54.03;99771.28;5021902;28;5468;-64
2022/09/29 08:47:49;;;;;;;;;;;;;;;20.84;53.94;99759.78;5021881;28;4080;-64
2022/09/29 08:50:21;;;;;;;;;;;;;;;20.84;53.83;99759.06;5024909;28;5540;-64
2022/09/29 08:52:50;;;;;;;;;;;;;;;20.84;54.17;99771.28;5014734;28;4337;-65
2022/09/29 08:55:18;;;;;;;;;;;;;;;20.83;53.97;99766.97;5021272;28;4165;-64
2022/09/29 08:57:47;;;;;;;;;;;;;;;20.83;53.92;99769.84;5026930;28;6257;-65
2022/09/29 09:00:14;;;;;;;;;;;;;;;20.84;53.89;99759.78;5018830;28;4184;-65
2022/09/29 09:02:43;;;;;;;;;;;;;;;20.84;54.00;99767.69;5024406;28;3981;-64
2022/09/29 09:05:25;;;;;;;;;;;;;;;20.83;54.22;99769.84;5024517;28;4551;-60
2022/09/29 09:08:14;;;;;;;;;;;;;;;20.82;54.15;99774.13;5027016;28;5373;-64
2022/09/29 09:10:47;;;;;;;;;;;;;;;20.82;54.21;99773.38;5019575;28;5702;-65
2022/09/29 09:13:18;;;;;;;;;;;;;;;20.82;54.01;99784.91;5014929;28;4258;-65
2022/09/29 09:15:47;;;;;;;;;;;;;;;20.82;54.00;99782.00;5023582;28;5429;-64
2022/09/29 09:18:27;;;;;;;;;;;;;;;20.81;54.10;99781.28;5016333;28;5275;-65
2022/09/29 09:21:02;;;;;;;;;;;;;;;20.81;54.26;99780.56;5012271;28;6068;-65
2022/09/29 09:23:41;;;;;;;;;;;;;;;20.81;54.30;99783.44;5007948;28;4224;-65
2022/09/29 09:26:08;;;;;;;;;;;;;;;20.80;54.19;99781.97;5015384;28;4092;-65
2022/09/29 09:28:54;;;;;;;;;;;;;;;20.80;54.37;99788.47;5012536;28;5323;-65
2022/09/29 09:31:24;;;;;;;;;;;;;;;20.79;54.43;99786.25;5006312;28;4491;-65
2022/09/29 09:33:56;;;;;;;;;;;;;;;20.79;54.35;99783.38;5010087;28;4122;-64
2022/09/29 09:36:35;;;;;;;;;;;;;;;20.78;54.25;99796.31;5015154;28;4177;-65
2022/09/29 09:39:03;;;;;;;;;;;;;;;20.78;54.49;99794.16;5012137;28;4155;-65
2022/09/29 09:41:30;;;;;;;;;;;;;;;20.78;54.36;99797.03;5018162;28;4248;-65
2022/09/29 09:44:17;;;;;;;;;;;;;;;20.77;54.28;99797.72;5020897;28;4342;-65
2022/09/29 09:46:51;;;;;;;;;;;;;;;20.77;54.40;99786.94;5026551;28;4169;-64
2022/09/29 09:49:31;;;;;;;;;;;;;;;20.76;54.25;99793.38;5018574;28;4076;-64
2022/09/29 09:52:07;;;;;;;;;;;;;;;20.76;54.34;99796.97;5016445;28;5342;-64
2022/09/29 09:54:34;;;;;;;;;;;;;;;20.75;54.54;99792.63;5020437;28;4204;-65
2022/09/29 09:57:10;;;;;;;;;;;;;;;20.75;54.37;99791.91;5024710;28;5322;-65
2022/09/29 09:59:46;;;;;;;;;;;;;;;20.71;54.60;99795.41;5021970;28;4038;-65
2022/09/29 10:02:19;;;;;;;;;;;;;;;20.75;54.66;99800.53;5021072;28;4141;-64
2022/09/29 10:04:51;;;;;;;;;;;;;;;20.75;54.52;99792.63;5020191;28;5178;-64
2022/09/29 10:07:22;;;;;;;;;;;;;;;20.74;54.41;99805.56;5022375;28;4178;-64
2022/09/29 10:09:48;;;;;;;;;;;;;;;20.74;54.60;99805.56;5025581;28;4173;-65
2022/09/29 10:12:15;;;;;;;;;;;;;;;20.74;54.40;99805.56;5023876;28;4214;-65
2022/09/29 10:14:44;;;;;;;;;;;;;;;20.74;54.71;99802.69;5019674;28;4234;-64
2022/09/29 10:17:11;;;;;;;;;;;;;;;20.74;54.44;99814.19;5013344;28;5146;-65
2022/09/29 10:19:56;;;;;;;;;;;;;;;20.72;54.51;99805.50;5021505;28;4056;-64
2022/09/29 10:22:23;;;;;;;;;;;;;;;20.72;54.51;99811.25;5008031;28;5613;-65
2022/09/29 10:25:04;;;;;;;;;;;;;;;20.72;54.65;99811.25;5014353;28;5260;-65
2022/09/29 10:27:30;;;;;;;;;;;;;;;20.72;54.59;99808.38;5015348;28;5506;-64
2022/09/29 10:29:58;;;;;;;;;;;;;;;20.71;54.71;99809.78;5020579;28;4216;-64
2022/09/29 10:32:35;;;;;;;;;;;;;;;20.72;54.72;99817.00;5017870;28;4276;-64
2022/09/29 10:35:05;;;;;;;;;;;;;;;20.71;54.71;99822.03;5014739;28;4158;-64
2022/09/29 10:37:38;;;;;;;;;;;;;;;20.72;54.69;99822.75;5015819;28;4192;-64
2022/09/29 10:40:07;;;;;;;;;;;;;;;20.71;54.61;99815.53;5015431;28;5374;-64
2022/09/29 10:42:33;;;;;;;;;;;;;;;20.71;54.74;99818.41;5015352;28;5564;-65
2022/09/29 10:45:00;;;;;;;;;;;;;;;20.71;54.81;99829.94;5020647;28;4410;-64
2022/09/29 10:47:27;;;;;;;;;;;;;;;20.70;54.68;99828.44;5014482;28;4077;-65
2022/09/29 10:50:06;;;;;;;;;;;;;;;20.70;54.62;99826.28;5019546;28;4194;-65
2022/09/29 10:52:32;;;;;;;;;;;;;;;20.70;54.58;99820.53;5011869;28;4073;-64
2022/09/29 10:54:59;;;;;;;;;;;;;;;20.71;54.69;99844.31;5012206;28;4174;-64
2022/09/29 10:57:26;;;;;;;;;;;;;;;20.71;54.71;99832.81;5018141;28;5541;-63
2022/09/29 10:59:53;;;;;;;;;;;;;;;20.73;53.51;99827.09;5007427;28;4599;-71
2022/09/29 11:02:24;;;;;;;;;;;;;;;20.75;53.15;99826.41;5016078;28;4578;-72
2022/09/29 11:04:50;;;;;;;;;;;;;;;20.70;53.15;99837.81;5026484;28;4144;-70
2022/09/29 11:07:17;;;;;;;;;;;;;;;20.71;53.52;99827.03;5024976;28;4228;-73
2022/09/29 11:09:43;;;;;;;;;;;;;;;20.73;54.03;99829.22;5024452;28;4205;-72
2022/09/29 11:12:28;;;;;;;;;;;;;;;20.73;54.16;99830.00;5032120;28;4241;-73
2022/09/29 11:14:55;;;;;;;;;;;;;;;20.74;54.54;99842.94;5031060;28;4217;-73
2022/09/29 11:17:28;;;;;;;;;;;;;;;20.75;54.04;99835.03;5029367;28;4187;-72
2022/09/29 11:19:55;;;;;;;;;;;;;;;20.76;54.02;99834.38;5021234;28;5274;-72
2022/09/29 11:22:40;;;;;;;;;;;;;;;20.78;53.94;99839.47;5023646;28;4394;-73
2022/09/29 11:25:12;;;;;;;;;;;;;;;20.78;54.25;99848.81;5031896;28;5547;-68
2022/09/29 11:27:54;;;;;;;;;;;;;;;20.76;54.47;99854.53;5023535;28;6384;-71
2022/09/29 11:30:24;;;;;;;;;;;;;;;20.78;54.46;99853.84;5017227;28;4326;-72
2022/09/29 11:33:03;;;;;;;;;;;;;;;20.81;54.40;99852.50;5027060;28;4166;-72
2022/09/29 11:35:30;;;;;;;;;;;;;;;20.84;54.62;99851.13;5026420;28;4411;-64
2022/09/29 11:37:59;;;;;;;;;;;;;;;20.81;54.66;99852.50;5009772;28;5316;-69
2022/09/29 11:40:28;;;;;;;;;;;;;;;20.80;54.81;99848.13;5023622;28;4188;-65
2022/09/29 11:43:04;;;;;;;;;;;;;;;20.83;54.74;99853.28;5023517;28;4301;-60
2022/09/29 11:45:33;;;;;;;;;;;;;;;21.11;54.49;99844.69;5024127;28;4195;-62
2022/09/29 11:48:23;;;;;;;;;;;;;;;21.20;54.35;99845.66;5005499;28;4287;-60
2022/09/29 11:50:59;;;;;;;;;;;;;;;21.55;53.87;99840.81;5006909;28;5137;-60
2022/09/29 11:53:44;;;;;;;;;;;;;;;21.65;53.80;99846.13;5018781;28;4373;-60
2022/09/29 11:56:21;;;;;;;;;;;;;;;21.66;53.68;99844.69;5022899;28;4253;-60
2022/09/29 11:58:55;;;;;;;;;;;;;;;21.56;53.79;99839.41;5009098;28;4279;-63
2022/09/29 12:01:36;;;;;;;;;;;;;;;21.47;54.16;99837.75;5014632;28;4390;-64
2022/09/29 12:04:21;;;;;;;;;;;;;;;21.22;54.68;99842.81;5018658;28;4091;-68
2022/09/29 12:06:54;;;;;;;;;;;;;;;21.21;54.95;99850.00;5020380;28;5542;-65
2022/09/29 12:09:23;;;;;;;;;;;;;;;21.26;54.84;99848.69;5020958;28;5693;-67
2022/09/29 12:12:04;;;;;;;;;;;;;;;21.40;53.29;99853.38;5015828;28;4262;-69
2022/09/29 12:14:52;;;;;;;;;;;;;;;21.34;53.12;99848.16;5014990;28;4194;-64
2022/09/29 12:17:18;;;;;;;;;;;;;;;21.44;53.31;99850.59;5020306;28;6817;-62
2022/09/29 12:19:55;;;;;;;;;;;;;;;21.54;53.55;99854.47;5006239;28;4107;-62
2022/09/29 12:22:21;;;;;;;;;;;;;;;21.62;53.74;99853.22;5014073;28;5341;-63
2022/09/29 12:24:50;;;;;;;;;;;;;;;21.63;54.13;99848.94;5021745;28;4249;-63
2022/09/29 12:27:18;;;;;;;;;;;;;;;21.68;54.19;99845.47;5024036;28;5433;-59
2022/09/29 12:29:49;;;;;;;;;;;;;;;21.64;54.90;99862.66;5021745;28;4179;-66
2022/09/29 12:32:27;;;;;;;;;;;;;;;21.61;54.77;99848.88;5023360;28;4962;-63
2022/09/29 12:34:58;;;;;;;;;;;;;;;21.77;54.61;99851.44;5012235;28;5569;-59
2022/09/29 12:37:45;;;;;;;;;;;;;;;21.81;54.67;99845.78;5015631;28;5352;-59
2022/09/29 12:40:34;;;;;;;;;;;;;;;21.84;55.27;99850.16;5020391;28;5337;-65
2022/09/29 12:43:11;;;;;;;;;;;;;;;21.89;55.62;99845.97;5006630;28;4182;-65
2022/09/29 12:45:45;;;;;;;;;;;;;;;21.69;56.46;99846.94;5012893;28;5565;-60
2022/09/29 12:48:16;;;;;;;;;;;;;;;21.54;57.00;99851.59;5024184;28;4910;-60
2022/09/29 12:50:49;;;;;;;;;;;;;;;21.49;57.62;99857.94;5022592;28;4121;-61
2022/09/29 12:53:27;;;;;;;;;;;;;;;21.46;57.68;99853.53;5020289;28;5282;-59
2022/09/29 12:55:57;;;;;;;;;;;;;;;21.70;57.95;99854.16;5021303;28;4339;-59
2022/09/29 12:58:27;;;;;;;;;;;;;;;21.50;57.59;99859.41;5011911;28;4208;-60
2022/09/29 13:00:56;;;;;;;;;;;;;;;21.40;58.02;99850.50;5018668;28;4923;-62
2022/09/29 13:03:32;;;;;;;;;;;;;;;21.65;57.91;99858.38;5018579;28;5319;-58
2022/09/29 13:06:05;;;;;;;;;;;;;;;21.93;57.33;99858.31;5024839;28;4236;-60
2022/09/29 13:08:31;;;;;;;;;;;;;;;21.58;57.52;99858.88;5023888;28;5275;-59
2022/09/29 13:11:03;;;;;;;;;;;;;;;21.49;57.76;99861.56;5020961;28;5347;-61
2022/09/29 13:13:48;;;;;;;;;;;;;;;21.44;57.94;99862.13;5016045;28;4173;-61
2022/09/29 13:16:17;;;;;;;;;;;;;;;21.42;57.83;99864.97;5018976;28;4204;-59